sensor_id;sensor_type;location;lat;lon;timestamp;temperature;humidity
21271;DHT22;10795;50.796;3.860;2024-02-16T00:01:12;12.50;99.90
21271;DHT22;10795;50.796;3.860;2024-02-16T00:03:41;12.40;99.90
21271;DHT22;10795;50.796;3.860;2024-02-16T00:06:07;12.30;99.90
21271;DHT22;10795;50.796;3.860;2024-02-16T00:08:33;12.30;99.90
21271;DHT22;10795;50.796;3.860;2024-02-16T00:11:00;12.40;99.90
21271;DHT22;10795;50.796;3.860;2024-02-16T00:13:26;12.50;99.90
21271;DHT22;10795;50.796;3.860;2024-02-16T00:15:52;12.50;99.90
21271;DHT22;10795;50.796;3.860;2024-02-16T00:18:18;12.50;99.90
21271;DHT22;10795;50.796;3.860;2024-02-16T00:20:43;12.50;99.90
21271;DHT22;10795;50.796;3.860;2024-02-16T00:23:10;12.50;99.90
21271;DHT22;10795;50.796;3.860;2024-02-16T00:25:36;12.50;99.90
21271;DHT22;10795;50.796;3.860;2024-02-16T00:28:03;12.50;99.90
21271;DHT22;10795;50.796;3.860;2024-02-16T00:30:29;12.50;99.90
21271;DHT22;10795;50.796;3.860;2024-02-16T00:32:55;12.50;99.90
21271;DHT22;10795;50.796;3.860;2024-02-16T00:35:21;12.40;99.90
21271;DHT22;10795;50.796;3.860;2024-02-16T00:37:47;12.40;99.90
21271;DHT22;10795;50.796;3.860;2024-02-16T00:40:13;12.50;99.90
21271;DHT22;10795;50.796;3.860;2024-02-16T00:42:38;12.50;99.90
21271;DHT22;10795;50.796;3.860;2024-02-16T00:45:05;12.40;99.90
21271;DHT22;10795;50.796;3.860;2024-02-16T00:47:30;12.40;99.90
21271;DHT22;10795;50.796;3.860;2024-02-16T00:49:56;12.30;99.90
21271;DHT22;10795;50.796;3.860;2024-02-16T00:52:23;12.30;99.90
21271;DHT22;10795;50.796;3.860;2024-02-16T00:54:49;12.40;99.90
21271;DHT22;10795;50.796;3.860;2024-02-16T00:57:15;12.40;99.90
21271;DHT22;10795;50.796;3.860;2024-02-16T00:59:42;12.50;99.90
21271;DHT22;10795;50.796;3.860;2024-02-16T01:02:08;12.40;99.90
21271;DHT22;10795;50.796;3.860;2024-02-16T01:04:36;12.40;99.90
21271;DHT22;10795;50.796;3.860;2024-02-16T01:07:02;12.50;99.90
21271;DHT22;10795;50.796;3.860;2024-02-16T01:09:28;12.50;99.90
21271;DHT22;10795;50.796;3.860;2024-02-16T01:11:54;12.50;99.90
21271;DHT22;10795;50.796;3.860;2024-02-16T01:14:22;12.50;99.90
21271;DHT22;10795;50.796;3.860;2024-02-16T01:16:48;12.50;99.90
21271;DHT22;10795;50.796;3.860;2024-02-16T01:19:14;12.50;99.90
21271;DHT22;10795;50.796;3.860;2024-02-16T01:21:40;12.40;99.90
21271;DHT22;10795;50.796;3.860;2024-02-16T01:24:09;12.50;99.90
21271;DHT22;10795;50.796;3.860;2024-02-16T01:26:34;12.40;99.90
21271;DHT22;10795;50.796;3.860;2024-02-16T01:29:00;12.40;99.90
21271;DHT22;10795;50.796;3.860;2024-02-16T01:31:30;12.40;99.90
21271;DHT22;10795;50.796;3.860;2024-02-16T01:33:55;12.40;99.90
21271;DHT22;10795;50.796;3.860;2024-02-16T01:36:21;12.50;99.90
21271;DHT22;10795;50.796;3.860;2024-02-16T01:38:47;12.50;99.90
21271;DHT22;10795;50.796;3.860;2024-02-16T01:41:13;12.40;99.90
21271;DHT22;10795;50.796;3.860;2024-02-16T01:43:40;12.50;99.90
21271;DHT22;10795;50.796;3.860;2024-02-16T01:46:06;12.40;99.90
21271;DHT22;10795;50.796;3.860;2024-02-16T01:48:33;12.40;99.90
21271;DHT22;10795;50.796;3.860;2024-02-16T01:50:59;12.30;99.90
21271;DHT22;10795;50.796;3.860;2024-02-16T01:53:26;12.30;99.90
21271;DHT22;10795;50.796;3.860;2024-02-16T01:55:53;12.20;99.90
21271;DHT22;10795;50.796;3.860;2024-02-16T01:58:18;12.30;99.90
21271;DHT22;10795;50.796;3.860;2024-02-16T02:00:46;12.20;99.90
21271;DHT22;10795;50.796;3.860;2024-02-16T02:03:12;12.30;99.90
21271;DHT22;10795;50.796;3.860;2024-02-16T02:05:45;12.30;99.90
21271;DHT22;10795;50.796;3.860;2024-02-16T02:08:12;12.30;99.90
21271;DHT22;10795;50.796;3.860;2024-02-16T02:10:38;12.30;99.90
21271;DHT22;10795;50.796;3.860;2024-02-16T02:13:04;12.30;99.90
21271;DHT22;10795;50.796;3.860;2024-02-16T02:15:30;12.30;99.90
21271;DHT22;10795;50.796;3.860;2024-02-16T02:17:55;12.30;99.90
21271;DHT22;10795;50.796;3.860;2024-02-16T02:20:26;12.30;99.90
21271;DHT22;10795;50.796;3.860;2024-02-16T02:22:52;12.30;99.90
21271;DHT22;10795;50.796;3.860;2024-02-16T02:25:18;12.20;99.90
21271;DHT22;10795;50.796;3.860;2024-02-16T02:27:44;12.30;99.90
21271;DHT22;10795;50.796;3.860;2024-02-16T02:30:11;12.30;99.90
21271;DHT22;10795;50.796;3.860;2024-02-16T02:32:37;12.30;99.90
21271;DHT22;10795;50.796;3.860;2024-02-16T02:35:03;12.40;99.90
21271;DHT22;10795;50.796;3.860;2024-02-16T02:37:29;12.40;99.90
21271;DHT22;10795;50.796;3.860;2024-02-16T02:39:55;12.50;99.90
21271;DHT22;10795;50.796;3.860;2024-02-16T02:42:22;12.60;99.90
21271;DHT22;10795;50.796;3.860;2024-02-16T02:44:48;12.60;99.90
21271;DHT22;10795;50.796;3.860;2024-02-16T02:47:16;12.60;99.90
21271;DHT22;10795;50.796;3.860;2024-02-16T02:49:45;12.60;99.90
21271;DHT22;10795;50.796;3.860;2024-02-16T02:52:11;12.60;99.90
21271;DHT22;10795;50.796;3.860;2024-02-16T02:54:36;12.60;99.90
21271;DHT22;10795;50.796;3.860;2024-02-16T02:57:03;12.70;99.90
21271;DHT22;10795;50.796;3.860;2024-02-16T02:59:29;12.70;99.90
21271;DHT22;10795;50.796;3.860;2024-02-16T03:01:54;12.60;99.90
21271;DHT22;10795;50.796;3.860;2024-02-16T03:04:20;12.50;99.90
21271;DHT22;10795;50.796;3.860;2024-02-16T03:06:46;12.40;99.90
21271;DHT22;10795;50.796;3.860;2024-02-16T03:09:12;12.50;99.90
21271;DHT22;10795;50.796;3.860;2024-02-16T03:11:38;12.50;99.90
21271;DHT22;10795;50.796;3.860;2024-02-16T03:14:05;12.60;99.90
21271;DHT22;10795;50.796;3.860;2024-02-16T03:16:31;12.70;99.90
21271;DHT22;10795;50.796;3.860;2024-02-16T03:18:57;12.70;99.90
21271;DHT22;10795;50.796;3.860;2024-02-16T03:21:23;12.70;99.90
21271;DHT22;10795;50.796;3.860;2024-02-16T03:23:50;12.70;99.90
21271;DHT22;10795;50.796;3.860;2024-02-16T03:26:16;12.60;99.90
21271;DHT22;10795;50.796;3.860;2024-02-16T03:28:46;12.60;99.90
21271;DHT22;10795;50.796;3.860;2024-02-16T03:31:22;12.70;99.90
21271;DHT22;10795;50.796;3.860;2024-02-16T03:33:50;12.70;99.90
21271;DHT22;10795;50.796;3.860;2024-02-16T03:36:19;12.70;99.90
21271;DHT22;10795;50.796;3.860;2024-02-16T03:38:46;12.80;99.90
21271;DHT22;10795;50.796;3.860;2024-02-16T03:41:13;12.80;99.90
21271;DHT22;10795;50.796;3.860;2024-02-16T03:43:42;12.80;99.90
21271;DHT22;10795;50.796;3.860;2024-02-16T03:46:08;12.70;99.90
21271;DHT22;10795;50.796;3.860;2024-02-16T03:48:37;12.80;99.90
21271;DHT22;10795;50.796;3.860;2024-02-16T03:51:03;12.80;99.90
21271;DHT22;10795;50.796;3.860;2024-02-16T03:53:29;12.80;99.90
21271;DHT22;10795;50.796;3.860;2024-02-16T03:55:55;12.80;99.90
21271;DHT22;10795;50.796;3.860;2024-02-16T03:58:24;12.80;99.90
21271;DHT22;10795;50.796;3.860;2024-02-16T04:00:52;12.70;99.90
21271;DHT22;10795;50.796;3.860;2024-02-16T04:03:18;12.80;99.90
21271;DHT22;10795;50.796;3.860;2024-02-16T04:05:47;12.70;99.90
21271;DHT22;10795;50.796;3.860;2024-02-16T04:08:12;12.70;99.90
21271;DHT22;10795;50.796;3.860;2024-02-16T04:10:38;12.70;99.90
21271;DHT22;10795;50.796;3.860;2024-02-16T04:13:04;12.60;99.90
21271;DHT22;10795;50.796;3.860;2024-02-16T04:15:30;12.60;99.90
21271;DHT22;10795;50.796;3.860;2024-02-16T04:17:56;12.60;99.90
21271;DHT22;10795;50.796;3.860;2024-02-16T04:20:22;12.60;99.90
21271;DHT22;10795;50.796;3.860;2024-02-16T04:22:48;12.60;99.90
21271;DHT22;10795;50.796;3.860;2024-02-16T04:25:14;12.70;99.90
21271;DHT22;10795;50.796;3.860;2024-02-16T04:27:42;12.60;99.90
21271;DHT22;10795;50.796;3.860;2024-02-16T04:30:08;12.60;99.90
21271;DHT22;10795;50.796;3.860;2024-02-16T04:32:34;12.70;99.90
21271;DHT22;10795;50.796;3.860;2024-02-16T04:35:00;12.70;99.90
21271;DHT22;10795;50.796;3.860;2024-02-16T04:37:26;12.80;99.90
21271;DHT22;10795;50.796;3.860;2024-02-16T04:39:52;12.90;99.90
21271;DHT22;10795;50.796;3.860;2024-02-16T04:42:18;12.90;99.90
21271;DHT22;10795;50.796;3.860;2024-02-16T04:44:43;12.80;99.90
21271;DHT22;10795;50.796;3.860;2024-02-16T04:47:09;12.80;99.90
21271;DHT22;10795;50.796;3.860;2024-02-16T04:49:36;12.70;99.90
21271;DHT22;10795;50.796;3.860;2024-02-16T04:52:03;12.70;99.90
21271;DHT22;10795;50.796;3.860;2024-02-16T04:54:29;12.80;99.90
21271;DHT22;10795;50.796;3.860;2024-02-16T04:56:55;12.70;99.90
21271;DHT22;10795;50.796;3.860;2024-02-16T04:59:20;12.80;99.90
21271;DHT22;10795;50.796;3.860;2024-02-16T05:01:47;12.70;99.90
21271;DHT22;10795;50.796;3.860;2024-02-16T05:04:15;12.80;99.90
21271;DHT22;10795;50.796;3.860;2024-02-16T05:06:44;12.80;99.90
21271;DHT22;10795;50.796;3.860;2024-02-16T05:09:13;13.00;99.90
21271;DHT22;10795;50.796;3.860;2024-02-16T05:11:45;13.00;99.90
21271;DHT22;10795;50.796;3.860;2024-02-16T05:14:11;12.90;99.90
21271;DHT22;10795;50.796;3.860;2024-02-16T05:16:42;13.00;99.90
21271;DHT22;10795;50.796;3.860;2024-02-16T05:19:07;13.00;99.90
21271;DHT22;10795;50.796;3.860;2024-02-16T05:21:33;12.90;99.90
21271;DHT22;10795;50.796;3.860;2024-02-16T05:24:01;13.00;99.90
21271;DHT22;10795;50.796;3.860;2024-02-16T05:26:26;13.10;99.90
21271;DHT22;10795;50.796;3.860;2024-02-16T05:28:52;13.10;99.90
21271;DHT22;10795;50.796;3.860;2024-02-16T05:31:18;13.20;99.90
21271;DHT22;10795;50.796;3.860;2024-02-16T05:33:46;13.20;99.90
21271;DHT22;10795;50.796;3.860;2024-02-16T05:36:15;13.10;99.90
21271;DHT22;10795;50.796;3.860;2024-02-16T05:38:41;13.20;99.90
21271;DHT22;10795;50.796;3.860;2024-02-16T05:41:09;13.20;99.90
21271;DHT22;10795;50.796;3.860;2024-02-16T05:43:34;13.20;99.90
21271;DHT22;10795;50.796;3.860;2024-02-16T05:46:00;13.30;99.90
21271;DHT22;10795;50.796;3.860;2024-02-16T05:48:26;13.20;99.90
21271;DHT22;10795;50.796;3.860;2024-02-16T05:50:57;13.20;99.90
21271;DHT22;10795;50.796;3.860;2024-02-16T05:53:28;13.20;99.90
21271;DHT22;10795;50.796;3.860;2024-02-16T05:55:58;13.20;99.90
21271;DHT22;10795;50.796;3.860;2024-02-16T05:58:24;13.20;99.90
21271;DHT22;10795;50.796;3.860;2024-02-16T06:00:50;13.30;99.90
21271;DHT22;10795;50.796;3.860;2024-02-16T06:03:16;13.30;99.90
21271;DHT22;10795;50.796;3.860;2024-02-16T06:05:42;13.30;99.90
21271;DHT22;10795;50.796;3.860;2024-02-16T06:08:12;13.20;99.90
21271;DHT22;10795;50.796;3.860;2024-02-16T06:10:38;13.30;99.90
21271;DHT22;10795;50.796;3.860;2024-02-16T06:13:05;13.20;99.90
21271;DHT22;10795;50.796;3.860;2024-02-16T06:15:32;13.20;99.90
21271;DHT22;10795;50.796;3.860;2024-02-16T06:18:01;13.20;99.90
21271;DHT22;10795;50.796;3.860;2024-02-16T06:20:26;13.20;99.90
21271;DHT22;10795;50.796;3.860;2024-02-16T06:22:52;13.20;99.90
21271;DHT22;10795;50.796;3.860;2024-02-16T06:25:20;13.30;99.90
21271;DHT22;10795;50.796;3.860;2024-02-16T06:27:48;13.20;99.90
21271;DHT22;10795;50.796;3.860;2024-02-16T06:30:14;13.20;99.90
21271;DHT22;10795;50.796;3.860;2024-02-16T06:32:40;13.20;99.90
21271;DHT22;10795;50.796;3.860;2024-02-16T06:35:10;13.20;99.90
21271;DHT22;10795;50.796;3.860;2024-02-16T06:37:36;13.10;99.90
21271;DHT22;10795;50.796;3.860;2024-02-16T06:40:08;13.20;99.90
21271;DHT22;10795;50.796;3.860;2024-02-16T06:42:38;13.10;99.90
21271;DHT22;10795;50.796;3.860;2024-02-16T06:45:04;13.10;99.90
21271;DHT22;10795;50.796;3.860;2024-02-16T06:47:31;13.10;99.90
21271;DHT22;10795;50.796;3.860;2024-02-16T06:49:57;13.00;99.90
21271;DHT22;10795;50.796;3.860;2024-02-16T06:52:23;13.00;99.90
21271;DHT22;10795;50.796;3.860;2024-02-16T06:54:49;13.00;99.90
21271;DHT22;10795;50.796;3.860;2024-02-16T06:57:18;13.00;99.90
21271;DHT22;10795;50.796;3.860;2024-02-16T06:59:46;13.00;99.90
21271;DHT22;10795;50.796;3.860;2024-02-16T07:02:12;12.90;99.90
21271;DHT22;10795;50.796;3.860;2024-02-16T07:04:44;12.90;99.90
21271;DHT22;10795;50.796;3.860;2024-02-16T07:07:11;12.80;99.90
21271;DHT22;10795;50.796;3.860;2024-02-16T07:09:37;12.90;99.90
21271;DHT22;10795;50.796;3.860;2024-02-16T07:12:05;12.80;99.90
21271;DHT22;10795;50.796;3.860;2024-02-16T07:14:32;12.90;99.90
21271;DHT22;10795;50.796;3.860;2024-02-16T07:16:58;12.90;99.90
21271;DHT22;10795;50.796;3.860;2024-02-16T07:19:24;12.90;99.90
21271;DHT22;10795;50.796;3.860;2024-02-16T07:21:52;12.90;99.90
21271;DHT22;10795;50.796;3.860;2024-02-16T07:24:18;13.00;99.90
21271;DHT22;10795;50.796;3.860;2024-02-16T07:26:44;13.00;99.90
21271;DHT22;10795;50.796;3.860;2024-02-16T07:29:10;13.00;99.90
21271;DHT22;10795;50.796;3.860;2024-02-16T07:31:38;13.00;99.90
21271;DHT22;10795;50.796;3.860;2024-02-16T07:34:04;12.90;99.90
21271;DHT22;10795;50.796;3.860;2024-02-16T07:36:30;12.80;99.90
21271;DHT22;10795;50.796;3.860;2024-02-16T07:38:57;12.80;99.90
21271;DHT22;10795;50.796;3.860;2024-02-16T07:41:23;12.80;99.90
21271;DHT22;10795;50.796;3.860;2024-02-16T07:43:49;12.80;99.90
21271;DHT22;10795;50.796;3.860;2024-02-16T07:46:15;12.90;99.90
21271;DHT22;10795;50.796;3.860;2024-02-16T07:48:46;12.90;99.90
21271;DHT22;10795;50.796;3.860;2024-02-16T07:51:14;12.80;99.90
21271;DHT22;10795;50.796;3.860;2024-02-16T07:53:40;12.90;99.90
21271;DHT22;10795;50.796;3.860;2024-02-16T07:56:07;12.90;99.90
21271;DHT22;10795;50.796;3.860;2024-02-16T07:58:33;12.90;99.90
21271;DHT22;10795;50.796;3.860;2024-02-16T08:01:01;12.90;99.90
21271;DHT22;10795;50.796;3.860;2024-02-16T08:03:28;13.00;99.90
21271;DHT22;10795;50.796;3.860;2024-02-16T08:05:55;13.00;99.90
21271;DHT22;10795;50.796;3.860;2024-02-16T08:08:24;12.90;99.90
21271;DHT22;10795;50.796;3.860;2024-02-16T08:10:50;12.90;99.90
21271;DHT22;10795;50.796;3.860;2024-02-16T08:13:17;12.90;99.90
21271;DHT22;10795;50.796;3.860;2024-02-16T08:15:43;12.90;99.90
21271;DHT22;10795;50.796;3.860;2024-02-16T08:18:09;12.90;99.90
21271;DHT22;10795;50.796;3.860;2024-02-16T08:20:37;12.90;99.90
21271;DHT22;10795;50.796;3.860;2024-02-16T08:23:05;13.00;99.90
21271;DHT22;10795;50.796;3.860;2024-02-16T08:25:31;13.10;99.90
21271;DHT22;10795;50.796;3.860;2024-02-16T08:27:58;13.10;99.90
21271;DHT22;10795;50.796;3.860;2024-02-16T08:30:24;13.00;99.90
21271;DHT22;10795;50.796;3.860;2024-02-16T08:32:51;13.10;99.90
21271;DHT22;10795;50.796;3.860;2024-02-16T08:35:19;13.10;99.90
21271;DHT22;10795;50.796;3.860;2024-02-16T08:37:47;13.20;99.90
21271;DHT22;10795;50.796;3.860;2024-02-16T08:40:16;13.10;99.90
21271;DHT22;10795;50.796;3.860;2024-02-16T08:42:42;13.10;99.90
21271;DHT22;10795;50.796;3.860;2024-02-16T08:45:08;13.00;99.90
21271;DHT22;10795;50.796;3.860;2024-02-16T08:47:34;13.10;99.90
21271;DHT22;10795;50.796;3.860;2024-02-16T08:50:00;13.10;99.90
21271;DHT22;10795;50.796;3.860;2024-02-16T08:52:26;13.10;99.90
21271;DHT22;10795;50.796;3.860;2024-02-16T08:54:52;13.20;99.90
21271;DHT22;10795;50.796;3.860;2024-02-16T08:57:18;13.20;99.90
21271;DHT22;10795;50.796;3.860;2024-02-16T08:59:45;13.20;99.90
21271;DHT22;10795;50.796;3.860;2024-02-16T09:02:13;13.30;99.90
21271;DHT22;10795;50.796;3.860;2024-02-16T09:04:41;13.30;99.90
21271;DHT22;10795;50.796;3.860;2024-02-16T09:07:10;13.30;99.90
21271;DHT22;10795;50.796;3.860;2024-02-16T09:09:36;13.30;99.90
21271;DHT22;10795;50.796;3.860;2024-02-16T09:12:02;13.40;99.90
21271;DHT22;10795;50.796;3.860;2024-02-16T09:14:28;13.30;99.90
21271;DHT22;10795;50.796;3.860;2024-02-16T09:16:53;13.30;99.90
21271;DHT22;10795;50.796;3.860;2024-02-16T09:19:19;13.30;99.90
21271;DHT22;10795;50.796;3.860;2024-02-16T09:21:48;13.30;99.90
21271;DHT22;10795;50.796;3.860;2024-02-16T09:24:15;13.30;99.90
21271;DHT22;10795;50.796;3.860;2024-02-16T09:26:44;13.30;99.90
21271;DHT22;10795;50.796;3.860;2024-02-16T09:29:15;13.30;99.90
21271;DHT22;10795;50.796;3.860;2024-02-16T09:31:43;13.20;99.90
21271;DHT22;10795;50.796;3.860;2024-02-16T09:34:11;13.20;99.90
21271;DHT22;10795;50.796;3.860;2024-02-16T09:36:37;13.20;99.90
21271;DHT22;10795;50.796;3.860;2024-02-16T09:39:05;13.20;99.90
21271;DHT22;10795;50.796;3.860;2024-02-16T09:41:34;13.20;99.90
21271;DHT22;10795;50.796;3.860;2024-02-16T09:44:05;13.20;99.90
21271;DHT22;10795;50.796;3.860;2024-02-16T09:46:33;13.10;99.90
21271;DHT22;10795;50.796;3.860;2024-02-16T09:49:03;13.10;99.90
21271;DHT22;10795;50.796;3.860;2024-02-16T09:51:29;13.10;99.90
21271;DHT22;10795;50.796;3.860;2024-02-16T09:53:56;13.00;99.90
21271;DHT22;10795;50.796;3.860;2024-02-16T09:56:22;13.00;99.90
21271;DHT22;10795;50.796;3.860;2024-02-16T09:58:50;13.00;99.90
21271;DHT22;10795;50.796;3.860;2024-02-16T10:01:21;13.00;99.90
21271;DHT22;10795;50.796;3.860;2024-02-16T10:03:47;13.00;99.90
21271;DHT22;10795;50.796;3.860;2024-02-16T10:06:17;13.00;99.90
21271;DHT22;10795;50.796;3.860;2024-02-16T10:08:54;13.00;99.90
21271;DHT22;10795;50.796;3.860;2024-02-16T10:11:22;13.00;99.90
21271;DHT22;10795;50.796;3.860;2024-02-16T10:13:56;12.90;99.90
21271;DHT22;10795;50.796;3.860;2024-02-16T10:16:23;13.00;99.90
21271;DHT22;10795;50.796;3.860;2024-02-16T10:18:49;13.00;99.90
21271;DHT22;10795;50.796;3.860;2024-02-16T10:21:25;12.90;99.90
21271;DHT22;10795;50.796;3.860;2024-02-16T10:24:02;12.90;99.90
21271;DHT22;10795;50.796;3.860;2024-02-16T10:26:29;12.90;99.90
21271;DHT22;10795;50.796;3.860;2024-02-16T10:28:56;12.90;99.90
21271;DHT22;10795;50.796;3.860;2024-02-16T10:31:24;12.80;99.90
21271;DHT22;10795;50.796;3.860;2024-02-16T10:34:02;12.90;99.90
21271;DHT22;10795;50.796;3.860;2024-02-16T10:36:32;12.80;99.90
21271;DHT22;10795;50.796;3.860;2024-02-16T10:38:59;12.80;99.90
21271;DHT22;10795;50.796;3.860;2024-02-16T10:41:27;12.80;99.90
21271;DHT22;10795;50.796;3.860;2024-02-16T10:43:56;12.80;99.90
21271;DHT22;10795;50.796;3.860;2024-02-16T10:46:23;12.80;99.90
21271;DHT22;10795;50.796;3.860;2024-02-16T10:48:52;12.70;99.90
21271;DHT22;10795;50.796;3.860;2024-02-16T10:51:28;12.60;99.90
21271;DHT22;10795;50.796;3.860;2024-02-16T10:53:56;12.70;99.90
21271;DHT22;10795;50.796;3.860;2024-02-16T10:56:27;12.70;99.90
21271;DHT22;10795;50.796;3.860;2024-02-16T10:58:54;12.60;99.90
21271;DHT22;10795;50.796;3.860;2024-02-16T11:01:20;12.60;99.90
21271;DHT22;10795;50.796;3.860;2024-02-16T11:03:46;12.60;99.90
21271;DHT22;10795;50.796;3.860;2024-02-16T11:06:15;12.50;99.90
21271;DHT22;10795;50.796;3.860;2024-02-16T11:08:42;12.50;99.90
21271;DHT22;10795;50.796;3.860;2024-02-16T11:11:08;12.50;99.90
21271;DHT22;10795;50.796;3.860;2024-02-16T11:13:37;12.50;99.90
21271;DHT22;10795;50.796;3.860;2024-02-16T11:16:07;12.50;99.90
21271;DHT22;10795;50.796;3.860;2024-02-16T11:18:41;12.60;99.90
21271;DHT22;10795;50.796;3.860;2024-02-16T11:21:12;12.50;99.90
21271;DHT22;10795;50.796;3.860;2024-02-16T11:23:40;12.60;99.90
21271;DHT22;10795;50.796;3.860;2024-02-16T11:26:10;12.50;99.90
21271;DHT22;10795;50.796;3.860;2024-02-16T11:28:41;12.50;99.90
21271;DHT22;10795;50.796;3.860;2024-02-16T11:31:07;12.40;99.90
21271;DHT22;10795;50.796;3.860;2024-02-16T11:33:34;12.60;99.90
21271;DHT22;10795;50.796;3.860;2024-02-16T11:36:03;12.60;99.90
21271;DHT22;10795;50.796;3.860;2024-02-16T11:38:34;12.50;99.90
21271;DHT22;10795;50.796;3.860;2024-02-16T11:41:03;12.60;99.90
21271;DHT22;10795;50.796;3.860;2024-02-16T11:43:30;12.50;99.90
21271;DHT22;10795;50.796;3.860;2024-02-16T11:45:57;12.50;99.90
21271;DHT22;10795;50.796;3.860;2024-02-16T11:48:24;12.60;99.90
21271;DHT22;10795;50.796;3.860;2024-02-16T11:50:58;12.60;99.90
21271;DHT22;10795;50.796;3.860;2024-02-16T11:53:25;12.50;99.90
21271;DHT22;10795;50.796;3.860;2024-02-16T11:55:51;12.50;99.90
21271;DHT22;10795;50.796;3.860;2024-02-16T11:58:20;12.60;99.90
21271;DHT22;10795;50.796;3.860;2024-02-16T12:00:48;12.60;99.90
21271;DHT22;10795;50.796;3.860;2024-02-16T12:03:21;12.60;99.90
21271;DHT22;10795;50.796;3.860;2024-02-16T12:05:52;12.50;99.90
21271;DHT22;10795;50.796;3.860;2024-02-16T12:08:18;12.50;99.90
21271;DHT22;10795;50.796;3.860;2024-02-16T12:10:48;12.50;99.90
21271;DHT22;10795;50.796;3.860;2024-02-16T12:13:18;12.50;99.90
21271;DHT22;10795;50.796;3.860;2024-02-16T12:15:45;12.40;99.90
21271;DHT22;10795;50.796;3.860;2024-02-16T12:18:20;12.50;99.90
21271;DHT22;10795;50.796;3.860;2024-02-16T12:21:02;12.50;99.90
21271;DHT22;10795;50.796;3.860;2024-02-16T12:23:29;12.50;99.90
21271;DHT22;10795;50.796;3.860;2024-02-16T12:26:00;12.60;99.90
21271;DHT22;10795;50.796;3.860;2024-02-16T12:28:31;12.40;99.90
21271;DHT22;10795;50.796;3.860;2024-02-16T12:31:01;12.50;99.90
21271;DHT22;10795;50.796;3.860;2024-02-16T12:33:27;12.60;99.90
21271;DHT22;10795;50.796;3.860;2024-02-16T12:35:53;12.60;99.90
21271;DHT22;10795;50.796;3.860;2024-02-16T12:38:19;12.70;99.90
21271;DHT22;10795;50.796;3.860;2024-02-16T12:40:46;12.70;99.90
21271;DHT22;10795;50.796;3.860;2024-02-16T12:43:12;12.90;99.90
21271;DHT22;10795;50.796;3.860;2024-02-16T12:45:39;12.90;99.90
21271;DHT22;10795;50.796;3.860;2024-02-16T12:48:06;13.00;99.90
21271;DHT22;10795;50.796;3.860;2024-02-16T12:50:32;13.00;99.90
21271;DHT22;10795;50.796;3.860;2024-02-16T12:52:58;13.10;99.90
21271;DHT22;10795;50.796;3.860;2024-02-16T12:55:27;13.00;99.90
21271;DHT22;10795;50.796;3.860;2024-02-16T12:57:53;13.10;99.90
21271;DHT22;10795;50.796;3.860;2024-02-16T13:00:19;13.20;99.90
21271;DHT22;10795;50.796;3.860;2024-02-16T13:02:45;13.50;99.90
21271;DHT22;10795;50.796;3.860;2024-02-16T13:05:11;13.60;99.90
21271;DHT22;10795;50.796;3.860;2024-02-16T13:07:37;13.40;99.90
21271;DHT22;10795;50.796;3.860;2024-02-16T13:10:05;13.50;99.90
21271;DHT22;10795;50.796;3.860;2024-02-16T13:12:31;13.50;99.90
21271;DHT22;10795;50.796;3.860;2024-02-16T13:14:57;13.40;99.90
21271;DHT22;10795;50.796;3.860;2024-02-16T13:17:23;13.50;99.90
21271;DHT22;10795;50.796;3.860;2024-02-16T13:19:49;13.60;99.90
21271;DHT22;10795;50.796;3.860;2024-02-16T13:22:15;13.80;99.90
21271;DHT22;10795;50.796;3.860;2024-02-16T13:24:41;13.80;99.90
21271;DHT22;10795;50.796;3.860;2024-02-16T13:27:07;13.70;99.90
21271;DHT22;10795;50.796;3.860;2024-02-16T13:29:34;13.50;99.90
21271;DHT22;10795;50.796;3.860;2024-02-16T13:32:00;13.60;99.90
21271;DHT22;10795;50.796;3.860;2024-02-16T13:34:26;13.70;99.90
21271;DHT22;10795;50.796;3.860;2024-02-16T13:36:53;13.80;99.90
21271;DHT22;10795;50.796;3.860;2024-02-16T13:39:19;13.90;99.90
21271;DHT22;10795;50.796;3.860;2024-02-16T13:41:48;13.90;99.90
21271;DHT22;10795;50.796;3.860;2024-02-16T13:44:17;14.00;99.90
21271;DHT22;10795;50.796;3.860;2024-02-16T13:46:45;13.90;99.90
21271;DHT22;10795;50.796;3.860;2024-02-16T13:49:13;13.90;99.90
21271;DHT22;10795;50.796;3.860;2024-02-16T13:51:40;13.80;99.90
21271;DHT22;10795;50.796;3.860;2024-02-16T13:54:09;13.60;99.90
21271;DHT22;10795;50.796;3.860;2024-02-16T13:56:35;13.40;99.90
21271;DHT22;10795;50.796;3.860;2024-02-16T13:59:05;13.60;99.90
21271;DHT22;10795;50.796;3.860;2024-02-16T14:01:33;13.80;99.90
21271;DHT22;10795;50.796;3.860;2024-02-16T14:04:01;14.10;99.90
21271;DHT22;10795;50.796;3.860;2024-02-16T14:06:27;14.00;99.90
21271;DHT22;10795;50.796;3.860;2024-02-16T14:08:52;13.90;99.90
21271;DHT22;10795;50.796;3.860;2024-02-16T14:11:19;14.10;99.90
21271;DHT22;10795;50.796;3.860;2024-02-16T14:13:45;14.10;99.90
21271;DHT22;10795;50.796;3.860;2024-02-16T14:16:11;14.00;99.90
21271;DHT22;10795;50.796;3.860;2024-02-16T14:18:37;13.90;99.90
21271;DHT22;10795;50.796;3.860;2024-02-16T14:21:03;13.90;99.90
21271;DHT22;10795;50.796;3.860;2024-02-16T14:23:29;13.90;99.90
21271;DHT22;10795;50.796;3.860;2024-02-16T14:25:55;13.90;99.90
21271;DHT22;10795;50.796;3.860;2024-02-16T14:28:22;13.90;99.90
21271;DHT22;10795;50.796;3.860;2024-02-16T14:30:48;13.50;99.90
21271;DHT22;10795;50.796;3.860;2024-02-16T14:33:13;13.40;99.90
21271;DHT22;10795;50.796;3.860;2024-02-16T14:35:43;13.30;99.90
21271;DHT22;10795;50.796;3.860;2024-02-16T14:38:09;13.40;99.90
21271;DHT22;10795;50.796;3.860;2024-02-16T14:40:35;13.40;99.90
21271;DHT22;10795;50.796;3.860;2024-02-16T14:43:01;13.40;99.90
21271;DHT22;10795;50.796;3.860;2024-02-16T14:45:28;13.60;99.90
21271;DHT22;10795;50.796;3.860;2024-02-16T14:47:53;13.50;99.90
21271;DHT22;10795;50.796;3.860;2024-02-16T14:50:19;13.60;99.90
21271;DHT22;10795;50.796;3.860;2024-02-16T14:52:45;13.60;99.90
21271;DHT22;10795;50.796;3.860;2024-02-16T14:55:11;13.60;99.90
21271;DHT22;10795;50.796;3.860;2024-02-16T14:57:43;13.70;99.90
21271;DHT22;10795;50.796;3.860;2024-02-16T15:00:11;13.70;99.90
21271;DHT22;10795;50.796;3.860;2024-02-16T15:02:37;13.60;99.90
21271;DHT22;10795;50.796;3.860;2024-02-16T15:05:05;13.60;99.90
21271;DHT22;10795;50.796;3.860;2024-02-16T15:07:31;13.60;99.90
21271;DHT22;10795;50.796;3.860;2024-02-16T15:09:57;13.70;99.90
21271;DHT22;10795;50.796;3.860;2024-02-16T15:12:23;13.60;99.90
21271;DHT22;10795;50.796;3.860;2024-02-16T15:14:49;13.60;99.90
21271;DHT22;10795;50.796;3.860;2024-02-16T15:17:16;13.60;99.90
21271;DHT22;10795;50.796;3.860;2024-02-16T15:19:43;13.50;99.90
21271;DHT22;10795;50.796;3.860;2024-02-16T15:22:09;13.50;99.90
21271;DHT22;10795;50.796;3.860;2024-02-16T15:24:35;13.60;99.90
21271;DHT22;10795;50.796;3.860;2024-02-16T15:27:01;13.60;99.90
21271;DHT22;10795;50.796;3.860;2024-02-16T15:29:29;13.50;99.90